Hattiesburg Bobby L Chain Municipal Airport
KHBG : rendu visible

Aérodrome :











RETROUVEZ-NOUS SUR...

 
LOGIN :

S'inscrire | Disclaimer

   EN    FR    IT 

 









Légende :    VFR   VFR Marginal   IFR   IFR Intensif   IFR Très Intensif
Visi : 
Plafond : 
>= 8 km
>= 3000ft
5 à 8 km
1000 à 3000 ft
1500m à 5 km
500 à 1000 ft
800 à 1500m
200 à 500 ft
< 800m
< 200 ft
Symboles :   Orages  Brouillard  Fortes neiges  Fortes précipitations  Vent > 20 kt






- Altitude de l'aérodrome : 151 ft


KHBG - Hattiesburg Bobby L Chain Municipal

METAR N/A
TAF KHBG
Valide du 23 à 18h jusqu'au 24 à 18h UTC


231811Z 2318/2418 13010KT 5SM -RA OVC015
FM232100 14008KT 5SM BR VCSH OVC007
FM240000 15005KT 5SM BR OVC003
FM240600 28005KT 5SM BR OVC003
FM241200 30006KT 6SM BR OVC007
FM241400 30006KT P6SM OVC015
FM241700 29010G15KT P6SM SCT050



MET'MAP, la Météo Aéronautique d'un coup d'oeil ! - Copyright ORBIFLY Décembre 2007 - Disclaimer

ORBIFLY MET'MAP TEAM :

Programmation & Développement : Alexandra Zaïnal
Sur une idée originale de : Baudouin d'Aumeries
Assistance à la programmation : Marc-Olivier Méhu
Soutien technique & logistique : Manuel Goepfert

Contact : metmap@orbifly.com




SOURCES & CREDITS :

   NOAA       Earth
Advisory